sensor_id;sensor_type;location;lat;lon;timestamp;pressure;altitude;pressure_sealevel;temperature;humidity
74427;BME280;62859;53.906;27.430;2023-04-25T00:01:41;1001.1;;;15.5;34.6
74427;BME280;62859;53.906;27.430;2023-04-25T00:06:19;1001.1;;;15.4;34.7
74427;BME280;62859;53.906;27.430;2023-04-25T00:11:43;1001;;;15.4;34.8
74427;BME280;62859;53.906;27.430;2023-04-25T00:16:33;1001;;;15.4;34.9
74427;BME280;62859;53.906;27.430;2023-04-25T00:21:39;1001;;;15.3;35.1
74427;BME280;62859;53.906;27.430;2023-04-25T00:26:09;1000.9;;;15.3;35.1
74427;BME280;62859;53.906;27.430;2023-04-25T00:31:53;1000.9;;;15.3;35.2
74427;BME280;62859;53.906;27.430;2023-04-25T00:36:51;1000.9;;;15.3;35.4
74427;BME280;62859;53.906;27.430;2023-04-25T00:41:09;1000.9;;;15.3;35.5
74427;BME280;62859;53.906;27.430;2023-04-25T00:46:19;1000.9;;;15.2;35.7
74427;BME280;62859;53.906;27.430;2023-04-25T00:51:41;1000.9;;;15.2;35.9
74427;BME280;62859;53.906;27.430;2023-04-25T00:56:21;1000.8;;;15.2;35.9
74427;BME280;62859;53.906;27.430;2023-04-25T01:01:17;1000.8;;;15.2;35.9
74427;BME280;62859;53.906;27.430;2023-04-25T01:06:53;1000.8;;;15.1;36.1
74427;BME280;62859;53.906;27.430;2023-04-25T01:11:09;1000.8;;;15.1;36.3
74427;BME280;62859;53.906;27.430;2023-04-25T01:16:27;1000.8;;;15.1;36.4
74427;BME280;62859;53.906;27.430;2023-04-25T01:21:10;1000.7;;;15;36.6
74427;BME280;62859;53.906;27.430;2023-04-25T01:26:37;1000.7;;;14.9;36.8
74427;BME280;62859;53.906;27.430;2023-04-25T01:31:33;1000.7;;;14.8;37.1
74427;BME280;62859;53.906;27.430;2023-04-25T01:36:19;1000.6;;;14.7;37.4
74427;BME280;62859;53.906;27.430;2023-04-25T01:41:29;1000.6;;;14.6;37.4
74427;BME280;62859;53.906;27.430;2023-04-25T01:46:41;1000.6;;;14.5;37.7
74427;BME280;62859;53.906;27.430;2023-04-25T01:51:09;1000.6;;;14.5;37.7
74427;BME280;62859;53.906;27.430;2023-04-25T01:56:31;1000.4;;;14.5;37.9
74427;BME280;62859;53.906;27.430;2023-04-25T02:01:29;1000.4;;;14.4;38
74427;BME280;62859;53.906;27.430;2023-04-25T02:06:09;1000.4;;;14.3;38.2
74427;BME280;62859;53.906;27.430;2023-04-25T02:11:49;1000.3;;;14.3;38.4
74427;BME280;62859;53.906;27.430;2023-04-25T02:16:51;1000.3;;;14.3;38.5
74427;BME280;62859;53.906;27.430;2023-04-25T02:21:21;1000.4;;;14.2;38.5
74427;BME280;62859;53.906;27.430;2023-04-25T02:26:51;1000.4;;;14.2;38.5
74427;BME280;62859;53.906;27.430;2023-04-25T02:31:19;1000.3;;;14.1;38.7
74427;BME280;62859;53.906;27.430;2023-04-25T02:36:21;1000.3;;;14.2;38.6
74427;BME280;62859;53.906;27.430;2023-04-25T02:41:11;1000.2;;;14.1;38.8
74427;BME280;62859;53.906;27.430;2023-04-25T02:46:53;1000.2;;;14;38.9
74427;BME280;62859;53.906;27.430;2023-04-25T02:51:09;1000.1;;;13.9;39
74427;BME280;62859;53.906;27.430;2023-04-25T02:56:51;1000;;;13.9;39.1
74427;BME280;62859;53.906;27.430;2023-04-25T03:01:51;1000;;;13.9;39.2
74427;BME280;62859;53.906;27.430;2023-04-25T03:06:43;1000.1;;;13.9;39.2
74427;BME280;62859;53.906;27.430;2023-04-25T03:11:29;1000.1;;;13.9;39.2
74427;BME280;62859;53.906;27.430;2023-04-25T03:16:43;1000.1;;;13.8;39.5
74427;BME280;62859;53.906;27.430;2023-04-25T03:21:30;1000.1;;;13.6;39.8
74427;BME280;62859;53.906;27.430;2023-04-25T03:26:33;1000.1;;;13.5;40.1
74427;BME280;62859;53.906;27.430;2023-04-25T03:31:31;1000;;;13.5;40.3
74427;BME280;62859;53.906;27.430;2023-04-25T03:36:51;1000;;;13.6;40.4
74427;BME280;62859;53.906;27.430;2023-04-25T03:41:37;1000.1;;;13.5;40.4
74427;BME280;62859;53.906;27.430;2023-04-25T03:46:21;1000.1;;;13.5;40.5
74427;BME280;62859;53.906;27.430;2023-04-25T03:51:43;1000;;;13.5;40.6
74427;BME280;62859;53.906;27.430;2023-04-25T03:56:23;1000.1;;;13.6;40.6
74427;BME280;62859;53.906;27.430;2023-04-25T04:01:09;1000.1;;;13.5;40.7
74427;BME280;62859;53.906;27.430;2023-04-25T04:06:41;1000.1;;;13.4;41
74427;BME280;62859;53.906;27.430;2023-04-25T04:11:43;1000.2;;;13.4;41.3
74427;BME280;62859;53.906;27.430;2023-04-25T04:16:09;1000.1;;;13.3;41.6
74427;BME280;62859;53.906;27.430;2023-04-25T04:21:51;1000.1;;;13.2;41.9
74427;BME280;62859;53.906;27.430;2023-04-25T04:26:31;1000;;;13.2;42
74427;BME280;62859;53.906;27.430;2023-04-25T04:31:09;1000;;;13.3;42.1
74427;BME280;62859;53.906;27.430;2023-04-25T04:36:53;1000;;;13.4;42
74427;BME280;62859;53.906;27.430;2023-04-25T04:41:51;1000.1;;;13.4;42.1
74427;BME280;62859;53.906;27.430;2023-04-25T04:46:19;1000.1;;;13.4;42.2
74427;BME280;62859;53.906;27.430;2023-04-25T04:51:39;1000.1;;;13.4;42.4
74427;BME280;62859;53.906;27.430;2023-04-25T04:56:39;1000;;;13.5;42.3
74427;BME280;62859;53.906;27.430;2023-04-25T05:01:43;1000;;;13.5;42.4
74427;BME280;62859;53.906;27.430;2023-04-25T05:06:19;1000;;;13.6;42.4
74427;BME280;62859;53.906;27.430;2023-04-25T05:11:29;1000;;;13.8;42.3
74427;BME280;62859;53.906;27.430;2023-04-25T05:16:53;1000;;;14.1;41.9
74427;BME280;62859;53.906;27.430;2023-04-25T05:21:45;1000.1;;;14.3;41.8
74427;BME280;62859;53.906;27.430;2023-04-25T05:26:19;1000.1;;;14.2;42.3
74427;BME280;62859;53.906;27.430;2023-04-25T05:31:53;1000.1;;;14.2;42.5
74427;BME280;62859;53.906;27.430;2023-04-25T05:36:09;1000.2;;;14.3;42.7
74427;BME280;62859;53.906;27.430;2023-04-25T05:41:31;1000.2;;;14.3;43.2
74427;BME280;62859;53.906;27.430;2023-04-25T05:46:33;1000.3;;;14.3;43.6
74427;BME280;62859;53.906;27.430;2023-04-25T05:51:45;1000.2;;;14.3;44.9
74427;BME280;62859;53.906;27.430;2023-04-25T05:56:09;1000.2;;;14.3;46.3
74427;BME280;62859;53.906;27.430;2023-04-25T06:01:51;1000.2;;;14.2;47.2
74427;BME280;62859;53.906;27.430;2023-04-25T06:06:51;1000.2;;;14.2;48.2
74427;BME280;62859;53.906;27.430;2023-04-25T06:11:11;1000;;;14.1;49.1
74427;BME280;62859;53.906;27.430;2023-04-25T06:16:21;999.8;;;14;49.8
74427;BME280;62859;53.906;27.430;2023-04-25T06:21:44;999.9;;;14;50.5
74427;BME280;62859;53.906;27.430;2023-04-25T06:26:39;999.9;;;13.9;51.3
74427;BME280;62859;53.906;27.430;2023-04-25T06:31:39;999.8;;;13.9;51.8
74427;BME280;62859;53.906;27.430;2023-04-25T06:36:19;999.8;;;13.8;52.3
74427;BME280;62859;53.906;27.430;2023-04-25T06:41:45;999.8;;;13.8;52.6
74427;BME280;62859;53.906;27.430;2023-04-25T06:46:39;999.8;;;13.8;52.6
74427;BME280;62859;53.906;27.430;2023-04-25T06:51:29;999.8;;;13.9;52.6
74427;BME280;62859;53.906;27.430;2023-04-25T06:56:19;999.7;;;14.1;52
74427;BME280;62859;53.906;27.430;2023-04-25T07:01:37;999.7;;;14.3;51.6
74427;BME280;62859;53.906;27.430;2023-04-25T07:06:09;999.6;;;14.5;50.9
74427;BME280;62859;53.906;27.430;2023-04-25T07:11:43;999.6;;;14.7;50.3
74427;BME280;62859;53.906;27.430;2023-04-25T07:16:45;999.6;;;15;49.7
74427;BME280;62859;53.906;27.430;2023-04-25T07:21:15;999.7;;;15.2;49.5
74427;BME280;62859;53.906;27.430;2023-04-25T07:26:55;999.6;;;15.4;49.3
74427;BME280;62859;53.906;27.430;2023-04-25T07:31:31;999.6;;;15.5;48.8
74427;BME280;62859;53.906;27.430;2023-04-25T07:36:21;999.6;;;15.7;48.5
74427;BME280;62859;53.906;27.430;2023-04-25T07:41:41;999.9;;;15.8;48.1
74427;BME280;62859;53.906;27.430;2023-04-25T07:46:53;999.7;;;15.7;48.1
74427;BME280;62859;53.906;27.430;2023-04-25T07:51:33;999.5;;;15.6;48.1
74427;BME280;62859;53.906;27.430;2023-04-25T07:56:41;999.4;;;15.6;47.9
74427;BME280;62859;53.906;27.430;2023-04-25T08:01:39;999.2;;;15.7;47.5
74427;BME280;62859;53.906;27.430;2023-04-25T08:06:45;999.3;;;15.8;47.6
74427;BME280;62859;53.906;27.430;2023-04-25T08:11:27;999.5;;;15.8;47.2
74427;BME280;62859;53.906;27.430;2023-04-25T08:16:21;999.5;;;15.9;46.9
74427;BME280;62859;53.906;27.430;2023-04-25T08:21:53;999.5;;;16;46.3
74427;BME280;62859;53.906;27.430;2023-04-25T08:26:53;999.5;;;16.6;45.2
74427;BME280;62859;53.906;27.430;2023-04-25T08:31:31;999.4;;;17.4;43.8
74427;BME280;62859;53.906;27.430;2023-04-25T08:36:55;999.4;;;18.2;41.2
74427;BME280;62859;53.906;27.430;2023-04-25T08:41:31;999.4;;;18.7;39.7
74427;BME280;62859;53.906;27.430;2023-04-25T08:46:09;999.3;;;19.2;38.9
74427;BME280;62859;53.906;27.430;2023-04-25T08:51:09;999.3;;;19.9;37.4
74427;BME280;62859;53.906;27.430;2023-04-25T08:56:56;999.3;;;20.4;36.3
74427;BME280;62859;53.906;27.430;2023-04-25T09:01:21;999.5;;;20.7;35.1
74427;BME280;62859;53.906;27.430;2023-04-25T09:06:28;999.6;;;20.6;34.4
74427;BME280;62859;53.906;27.430;2023-04-25T09:11:51;999.3;;;20.4;35.4
74427;BME280;62859;53.906;27.430;2023-04-25T09:16:13;999.4;;;20.8;35.4
74427;BME280;62859;53.906;27.430;2023-04-25T09:21:27;999.4;;;21.1;34.7
74427;BME280;62859;53.906;27.430;2023-04-25T09:26:29;999.4;;;21.1;34.5
74427;BME280;62859;53.906;27.430;2023-04-25T09:31:54;999.3;;;20.7;34.8
74427;BME280;62859;53.906;27.430;2023-04-25T09:36:23;999.4;;;20.6;35.4
74427;BME280;62859;53.906;27.430;2023-04-25T09:41:22;999.3;;;20.7;35.3
74427;BME280;62859;53.906;27.430;2023-04-25T09:46:53;999.2;;;21.4;34.5
74427;BME280;62859;53.906;27.430;2023-04-25T09:51:39;999.3;;;21.8;33.5
74427;BME280;62859;53.906;27.430;2023-04-25T09:56:10;999.2;;;22.2;32.7
74427;BME280;62859;53.906;27.430;2023-04-25T10:01:33;999.2;;;22.5;32.9
74427;BME280;62859;53.906;27.430;2023-04-25T10:06:39;999.1;;;22.8;31.8
74427;BME280;62859;53.906;27.430;2023-04-25T10:11:21;999.2;;;23;31.3
74427;BME280;62859;53.906;27.430;2023-04-25T10:16:21;999.1;;;22.8;31.8
74427;BME280;62859;53.906;27.430;2023-04-25T10:21:46;999;;;23.3;31.1
74427;BME280;62859;53.906;27.430;2023-04-25T10:26:17;998.9;;;23.6;30.8
74427;BME280;62859;53.906;27.430;2023-04-25T10:31:55;998.9;;;23.8;30.4
74427;BME280;62859;53.906;27.430;2023-04-25T10:36:32;999;;;23.6;29.8
74427;BME280;62859;53.906;27.430;2023-04-25T10:41:45;999;;;23.1;30.4
74427;BME280;62859;53.906;27.430;2023-04-25T10:46:39;999;;;22.7;31.4
74427;BME280;62859;53.906;27.430;2023-04-25T10:51:58;999;;;22.3;32.1
74427;BME280;62859;53.906;27.430;2023-04-25T10:56:36;998.8;;;22.2;32.4
74427;BME280;62859;53.906;27.430;2023-04-25T11:01:44;998.9;;;22.2;32.6
74427;BME280;62859;53.906;27.430;2023-04-25T11:06:43;998.8;;;22.5;31.4
74427;BME280;62859;53.906;27.430;2023-04-25T11:11:42;998.8;;;22.3;31.5
74427;BME280;62859;53.906;27.430;2023-04-25T11:16:29;998.7;;;21.9;32.2
74427;BME280;62859;53.906;27.430;2023-04-25T11:21:30;998.6;;;21.8;32.4
74427;BME280;62859;53.906;27.430;2023-04-25T11:26:53;998.5;;;21.8;32
74427;BME280;62859;53.906;27.430;2023-04-25T11:31:56;998.5;;;22.1;31.8
74427;BME280;62859;53.906;27.430;2023-04-25T11:36:19;998.4;;;22.9;30.7
74427;BME280;62859;53.906;27.430;2023-04-25T11:41:55;998.3;;;24;28.9
74427;BME280;62859;53.906;27.430;2023-04-25T11:46:19;998.2;;;24.6;27.5
74427;BME280;62859;53.906;27.430;2023-04-25T11:51:21;998.2;;;24.8;27.5
74427;BME280;62859;53.906;27.430;2023-04-25T11:56:31;998.2;;;24.6;27.1
74427;BME280;62859;53.906;27.430;2023-04-25T12:01:52;998.1;;;23.8;27.9
74427;BME280;62859;53.906;27.430;2023-04-25T12:06:33;998.6;;;22.9;28.4
74427;BME280;62859;53.906;27.430;2023-04-25T12:11:28;998.5;;;22;29.3
74427;BME280;62859;53.906;27.430;2023-04-25T12:16:54;998.3;;;21.1;30.9
74427;BME280;62859;53.906;27.430;2023-04-25T12:21:42;998.3;;;21.1;33
74427;BME280;62859;53.906;27.430;2023-04-25T12:26:45;998.2;;;21.9;31.4
74427;BME280;62859;53.906;27.430;2023-04-25T12:31:31;998.1;;;22.5;29.5
74427;BME280;62859;53.906;27.430;2023-04-25T12:36:54;997.9;;;23.4;28.7
74427;BME280;62859;53.906;27.430;2023-04-25T12:41:39;997.9;;;23.8;28.3
74427;BME280;62859;53.906;27.430;2023-04-25T12:46:32;997.9;;;24.2;27.8
74427;BME280;62859;53.906;27.430;2023-04-25T12:51:31;997.8;;;24.9;26.8
74427;BME280;62859;53.906;27.430;2023-04-25T12:56:40;997.7;;;25.3;25.7
74427;BME280;62859;53.906;27.430;2023-04-25T13:01:32;997.7;;;25.2;25.7
74427;BME280;62859;53.906;27.430;2023-04-25T13:06:32;997.7;;;25.3;25
74427;BME280;62859;53.906;27.430;2023-04-25T13:11:28;997.6;;;25.5;24.1
74427;BME280;62859;53.906;27.430;2023-04-25T13:16:28;997.5;;;25.6;24
74427;BME280;62859;53.906;27.430;2023-04-25T13:21:52;997.5;;;25.4;24.6
74427;BME280;62859;53.906;27.430;2023-04-25T13:26:44;997.4;;;25.5;24.9
74427;BME280;62859;53.906;27.430;2023-04-25T13:31:32;997.2;;;25.4;25.2
74427;BME280;62859;53.906;27.430;2023-04-25T13:36:54;997.1;;;25.2;25.5
74427;BME280;62859;53.906;27.430;2023-04-25T13:41:32;997;;;25;25.4
74427;BME280;62859;53.906;27.430;2023-04-25T13:46:20;997.1;;;24.6;26
74427;BME280;62859;53.906;27.430;2023-04-25T13:51:40;997.1;;;24;26.2
74427;BME280;62859;53.906;27.430;2023-04-25T13:56:52;997.1;;;23.2;27
74427;BME280;62859;53.906;27.430;2023-04-25T14:01:20;997.1;;;22.6;28.3
74427;BME280;62859;53.906;27.430;2023-04-25T14:06:40;997.1;;;22.2;28.8
74427;BME280;62859;53.906;27.430;2023-04-25T14:11:38;997.1;;;21.8;29.1
74427;BME280;62859;53.906;27.430;2023-04-25T14:16:44;997;;;21.5;29.8
74427;BME280;62859;53.906;27.430;2023-04-25T14:21:10;997;;;21.2;31.4
74427;BME280;62859;53.906;27.430;2023-04-25T14:26:20;997;;;20.9;32.3
74427;BME280;62859;53.906;27.430;2023-04-25T14:31:50;996.9;;;20.8;32.4
74427;BME280;62859;53.906;27.430;2023-04-25T14:36:40;996.8;;;20.5;33.5
74427;BME280;62859;53.906;27.430;2023-04-25T14:41:20;996.8;;;20.3;33.9
74427;BME280;62859;53.906;27.430;2023-04-25T14:46:54;996.8;;;20.2;33.9
74427;BME280;62859;53.906;27.430;2023-04-25T14:51:32;996.9;;;20.1;33.1
74427;BME280;62859;53.906;27.430;2023-04-25T14:56:10;997.2;;;20.1;32.6
74427;BME280;62859;53.906;27.430;2023-04-25T15:01:30;997.6;;;20;32.8
74427;BME280;62859;53.906;27.430;2023-04-25T15:06:52;997.4;;;19.9;34.5
74427;BME280;62859;53.906;27.430;2023-04-25T15:11:20;997.3;;;19.8;36.6
74427;BME280;62859;53.906;27.430;2023-04-25T15:16:20;997.4;;;19.7;38
74427;BME280;62859;53.906;27.430;2023-04-25T15:21:56;997.2;;;19.6;40.2
74427;BME280;62859;53.906;27.430;2023-04-25T15:26:10;997.1;;;19.6;41.4
74427;BME280;62859;53.906;27.430;2023-04-25T15:31:30;997.1;;;19.5;40.7
74427;BME280;62859;53.906;27.430;2023-04-25T15:36:20;997.1;;;19.5;40.1
74427;BME280;62859;53.906;27.430;2023-04-25T15:41:54;996.9;;;19.4;40
74427;BME280;62859;53.906;27.430;2023-04-25T15:46:40;996.8;;;19.4;39.8
74427;BME280;62859;53.906;27.430;2023-04-25T15:51:32;996.8;;;19.4;40.7
74427;BME280;62859;53.906;27.430;2023-04-25T15:56:22;996.8;;;19.4;40.8
74427;BME280;62859;53.906;27.430;2023-04-25T16:01:28;996.8;;;19.4;40.5
74427;BME280;62859;53.906;27.430;2023-04-25T16:06:32;996.8;;;19.3;40.6
74427;BME280;62859;53.906;27.430;2023-04-25T16:11:34;996.9;;;19.2;40.5
74427;BME280;62859;53.906;27.430;2023-04-25T16:16:16;997;;;19.1;41
74427;BME280;62859;53.906;27.430;2023-04-25T16:21:38;996.9;;;19;41.2
74427;BME280;62859;53.906;27.430;2023-04-25T16:26:52;996.8;;;18.9;40.7
74427;BME280;62859;53.906;27.430;2023-04-25T16:31:42;996.7;;;18.8;41.6
74427;BME280;62859;53.906;27.430;2023-04-25T16:36:44;996.7;;;18.7;41.8
74427;BME280;62859;53.906;27.430;2023-04-25T16:41:40;996.7;;;18.6;41.9
74427;BME280;62859;53.906;27.430;2023-04-25T16:46:52;996.6;;;18.6;41
74427;BME280;62859;53.906;27.430;2023-04-25T16:51:10;996.7;;;18.5;41
74427;BME280;62859;53.906;27.430;2023-04-25T16:56:42;996.8;;;18.4;41.3
74427;BME280;62859;53.906;27.430;2023-04-25T17:01:54;996.9;;;18.4;41.2
74427;BME280;62859;53.906;27.430;2023-04-25T17:06:32;997;;;18.4;41.4
74427;BME280;62859;53.906;27.430;2023-04-25T17:11:54;997;;;18.3;42
74427;BME280;62859;53.906;27.430;2023-04-25T17:16:46;996.9;;;18.2;43
74427;BME280;62859;53.906;27.430;2023-04-25T17:21:46;997;;;18.2;42.8
74427;BME280;62859;53.906;27.430;2023-04-25T17:26:28;997.2;;;18.1;43.2
74427;BME280;62859;53.906;27.430;2023-04-25T17:31:46;997.1;;;18;43.5
74427;BME280;62859;53.906;27.430;2023-04-25T17:36:42;997.3;;;17.9;44.2
74427;BME280;62859;53.906;27.430;2023-04-25T17:41:40;997.3;;;17.9;44.2
74427;BME280;62859;53.906;27.430;2023-04-25T17:46:20;997.2;;;17.8;44.7
74427;BME280;62859;53.906;27.430;2023-04-25T17:51:54;997.3;;;17.7;45
74427;BME280;62859;53.906;27.430;2023-04-25T17:56:42;997.4;;;17.7;45.5
74427;BME280;62859;53.906;27.430;2023-04-25T18:01:38;997.4;;;17.6;45.9
74427;BME280;62859;53.906;27.430;2023-04-25T18:06:10;997.5;;;17.6;46
74427;BME280;62859;53.906;27.430;2023-04-25T18:11:40;997.4;;;17.5;46
74427;BME280;62859;53.906;27.430;2023-04-25T18:16:20;997.3;;;17.5;45.4
74427;BME280;62859;53.906;27.430;2023-04-25T18:21:11;997.3;;;17.5;45.1
74427;BME280;62859;53.906;27.430;2023-04-25T18:26:54;997.3;;;17.4;45.3
74427;BME280;62859;53.906;27.430;2023-04-25T18:31:30;997.3;;;17.4;45.4
74427;BME280;62859;53.906;27.430;2023-04-25T18:36:28;997.4;;;17.4;45.5
74427;BME280;62859;53.906;27.430;2023-04-25T18:41:32;997.4;;;17.4;45.2
74427;BME280;62859;53.906;27.430;2023-04-25T18:46:42;997.4;;;17.4;45.2
74427;BME280;62859;53.906;27.430;2023-04-25T18:51:40;997.4;;;17.3;45
74427;BME280;62859;53.906;27.430;2023-04-25T18:56:10;997.3;;;17.3;45.4
74427;BME280;62859;53.906;27.430;2023-04-25T19:01:23;997.2;;;17.4;45.2
74427;BME280;62859;53.906;27.430;2023-04-25T19:06:42;997.2;;;17.4;45
74427;BME280;62859;53.906;27.430;2023-04-25T19:11:10;997.2;;;17.3;45.5
74427;BME280;62859;53.906;27.430;2023-04-25T19:16:32;997.2;;;17.3;45.6
74427;BME280;62859;53.906;27.430;2023-04-25T19:21:28;997.1;;;17.3;45.1
74427;BME280;62859;53.906;27.430;2023-04-25T19:26:10;997.1;;;17.3;44.7
74427;BME280;62859;53.906;27.430;2023-04-25T19:31:52;997.1;;;17.3;44.6
74427;BME280;62859;53.906;27.430;2023-04-25T19:36:35;997.1;;;17.3;45
74427;BME280;62859;53.906;27.430;2023-04-25T19:41:20;997.1;;;17.3;44.3
74427;BME280;62859;53.906;27.430;2023-04-25T19:46:54;997.1;;;17.3;44.6
74427;BME280;62859;53.906;27.430;2023-04-25T19:51:10;997.1;;;17.3;45.2
74427;BME280;62859;53.906;27.430;2023-04-25T19:56:22;997.1;;;17.2;45.3
74427;BME280;62859;53.906;27.430;2023-04-25T20:01:42;997.1;;;17.2;45
74427;BME280;62859;53.906;27.430;2023-04-25T20:06:54;997.1;;;17.1;45.1
74427;BME280;62859;53.906;27.430;2023-04-25T20:11:32;997.1;;;17.1;45.1
74427;BME280;62859;53.906;27.430;2023-04-25T20:16:52;997.1;;;17;45.4
74427;BME280;62859;53.906;27.430;2023-04-25T20:21:52;997;;;17;45.4
74427;BME280;62859;53.906;27.430;2023-04-25T20:26:44;997;;;17.1;45.5
74427;BME280;62859;53.906;27.430;2023-04-25T20:31:28;997;;;17;45.7
74427;BME280;62859;53.906;27.430;2023-04-25T20:36:44;997;;;17.1;45.5
74427;BME280;62859;53.906;27.430;2023-04-25T20:41:42;997;;;17.1;44.3
74427;BME280;62859;53.906;27.430;2023-04-25T20:46:40;997;;;17.1;43.7
74427;BME280;62859;53.906;27.430;2023-04-25T20:51:20;996.9;;;17.1;44.5
74427;BME280;62859;53.906;27.430;2023-04-25T20:56:54;997;;;17.1;45.5
74427;BME280;62859;53.906;27.430;2023-04-25T21:01:42;997;;;17;45.8
74427;BME280;62859;53.906;27.430;2023-04-25T21:06:10;997;;;17;44.7
74427;BME280;62859;53.906;27.430;2023-04-25T21:11:10;997;;;17;44.8
74427;BME280;62859;53.906;27.430;2023-04-25T21:16:40;997;;;16.9;46.1
74427;BME280;62859;53.906;27.430;2023-04-25T21:21:10;997;;;16.8;44.5
74427;BME280;62859;53.906;27.430;2023-04-25T21:26:46;997;;;16.7;45.7
74427;BME280;62859;53.906;27.430;2023-04-25T21:31:46;997;;;16.7;46.8
74427;BME280;62859;53.906;27.430;2023-04-25T21:36:22;996.9;;;16.6;47.3
74427;BME280;62859;53.906;27.430;2023-04-25T21:41:32;996.9;;;16.5;46.9
74427;BME280;62859;53.906;27.430;2023-04-25T21:46:32;996.8;;;16.4;46.3
74427;BME280;62859;53.906;27.430;2023-04-25T21:51:22;996.8;;;16.5;45.4
74427;BME280;62859;53.906;27.430;2023-04-25T21:56:40;996.8;;;16.5;45.1
74427;BME280;62859;53.906;27.430;2023-04-25T22:01:54;996.8;;;16.5;45.2
74427;BME280;62859;53.906;27.430;2023-04-25T22:06:32;996.9;;;16.5;45.7
74427;BME280;62859;53.906;27.430;2023-04-25T22:11:22;996.9;;;16.4;46.2
74427;BME280;62859;53.906;27.430;2023-04-25T22:16:32;996.8;;;16.3;46.8
74427;BME280;62859;53.906;27.430;2023-04-25T22:21:46;996.8;;;16.2;46.9
74427;BME280;62859;53.906;27.430;2023-04-25T22:26:28;996.8;;;16.1;47.2
74427;BME280;62859;53.906;27.430;2023-04-25T22:31:16;996.8;;;16.1;47.3
74427;BME280;62859;53.906;27.430;2023-04-25T22:36:54;996.8;;;16.1;46.9
74427;BME280;62859;53.906;27.430;2023-04-25T22:41:54;996.8;;;16.1;47
74427;BME280;62859;53.906;27.430;2023-04-25T22:46:22;996.7;;;16.1;46.9
74427;BME280;62859;53.906;27.430;2023-04-25T22:51:54;996.7;;;16.2;46.6
74427;BME280;62859;53.906;27.430;2023-04-25T22:56:20;996.7;;;16.1;46.6
74427;BME280;62859;53.906;27.430;2023-04-25T23:01:08;996.7;;;16.1;46.7
74427;BME280;62859;53.906;27.430;2023-04-25T23:06:30;996.6;;;16;46.6
74427;BME280;62859;53.906;27.430;2023-04-25T23:11:50;996.6;;;16;46.6
74427;BME280;62859;53.906;27.430;2023-04-25T23:16:38;996.5;;;15.9;46.7
74427;BME280;62859;53.906;27.430;2023-04-25T23:21:20;996.6;;;15.8;47
74427;BME280;62859;53.906;27.430;2023-04-25T23:26:52;996.6;;;15.8;47.2
74427;BME280;62859;53.906;27.430;2023-04-25T23:31:16;996.6;;;15.7;47.4
74427;BME280;62859;53.906;27.430;2023-04-25T23:36:15;996.6;;;15.6;47.7
74427;BME280;62859;53.906;27.430;2023-04-25T23:41:28;996.6;;;15.6;48
74427;BME280;62859;53.906;27.430;2023-04-25T23:46:48;996.6;;;15.5;48.3
74427;BME280;62859;53.906;27.430;2023-04-25T23:51:36;996.5;;;15.4;48.4
74427;BME280;62859;53.906;27.430;2023-04-25T23:56:06;996.5;;;15.4;48.6
